createdAt,value
2019-03-13T00:00:38.995Z,76.08
2019-03-13T00:01:33.552Z,76.02
2019-03-13T00:02:32.800Z,75.91
2019-03-13T00:03:09.467Z,75.91
2019-03-13T00:03:45.452Z,76.08
2019-03-13T00:04:32.744Z,75.92
2019-03-13T00:05:11.185Z,75.92
2019-03-13T00:05:51.306Z,75.41
2019-03-13T00:06:34.204Z,75.41
2019-03-13T00:07:10.440Z,75.85
2019-03-13T00:07:46.662Z,75.85
2019-03-13T00:08:24.145Z,75.85
2019-03-13T00:09:00.655Z,75.84
2019-03-13T00:09:37.106Z,75.87
2019-03-13T00:10:13.786Z,75.88
2019-03-13T00:10:51.196Z,76.32
2019-03-13T00:11:27.423Z,76.32
2019-03-13T00:12:06.143Z,75.88
2019-03-13T00:12:43.585Z,75.87
2019-03-13T00:13:20.265Z,75.87
2019-03-13T00:13:56.610Z,75.89
2019-03-13T00:14:33.190Z,75.43
2019-03-13T00:15:10.046Z,75.73
2019-03-13T00:15:58.779Z,75.32
2019-03-13T00:16:37.680Z,75.99
2019-03-13T00:17:14.211Z,75.38
2019-03-13T00:17:51.510Z,76.12
2019-03-13T00:18:40.187Z,76.12
2019-03-13T00:19:16.698Z,75.64
2019-03-13T00:19:54.182Z,75.60
2019-03-13T00:20:30.567Z,75.60
2019-03-13T00:21:19.941Z,75.57
2019-03-13T00:21:57.409Z,75.56
2019-03-13T00:22:35.259Z,75.55
2019-03-13T00:23:11.878Z,75.51
2019-03-13T00:23:54.722Z,75.50
2019-03-13T00:24:35.401Z,75.12
2019-03-13T00:25:14.909Z,75.96
2019-03-13T00:25:51.146Z,75.96
2019-03-13T00:26:28.219Z,75.53
2019-03-13T00:27:04.766Z,75.33
2019-03-13T00:27:48.237Z,75.33
2019-03-13T00:28:35.008Z,75.44
2019-03-13T00:29:19.107Z,75.56
2019-03-13T00:30:17.607Z,75.03
2019-03-13T00:30:54.699Z,75.46
2019-03-13T00:31:42.170Z,75.30
2019-03-13T00:32:18.203Z,75.07
2019-03-13T00:32:54.724Z,75.07
2019-03-13T00:33:33.333Z,75.21
2019-03-13T00:34:21.672Z,75.02
2019-03-13T00:34:59.392Z,75.26
2019-03-13T00:35:41.532Z,75.26
2019-03-13T00:36:17.661Z,75.18
2019-03-13T00:36:53.893Z,74.12
2019-03-13T00:37:31.325Z,74.12
2019-03-13T00:38:09.045Z,75.11
2019-03-13T00:44:12.234Z,74.37
2019-03-13T00:44:48.394Z,73.54
2019-03-13T00:45:34.114Z,73.54
2019-03-13T00:46:11.942Z,73.63
2019-03-13T00:46:49.350Z,73.63
2019-03-13T00:47:29.389Z,73.87
2019-03-13T00:48:16.143Z,73.48
2019-03-13T00:48:52.309Z,73.32
2019-03-13T00:49:28.429Z,73.32
2019-03-13T00:50:10.570Z,72.82
2019-03-13T00:51:05.281Z,72.82
2019-03-13T00:51:51.558Z,73.20
2019-03-13T00:52:28.797Z,73.02
2019-03-13T00:53:06.244Z,72.89
2019-03-13T00:53:43.690Z,72.82
2019-03-13T00:54:23.653Z,72.69
2019-03-13T00:54:59.939Z,72.57
2019-03-13T00:55:37.069Z,72.50
2019-03-13T00:56:13.270Z,72.34
2019-03-13T00:56:50.871Z,72.34
2019-03-13T00:57:27.203Z,71.92
2019-03-13T00:58:04.538Z,71.94
2019-03-13T00:58:43.122Z,71.76
2019-03-13T00:59:19.544Z,71.76
2019-03-13T00:59:55.936Z,71.67
2019-03-13T01:00:54.778Z,71.57
2019-03-13T01:01:41.444Z,71.43
2019-03-13T01:02:34.922Z,71.11
2019-03-13T01:03:22.470Z,71.03
2019-03-13T01:04:17.325Z,70.96
2019-03-13T01:05:04.983Z,70.82
2019-03-13T01:05:50.976Z,70.72
2019-03-13T01:06:32.393Z,70.51
2019-03-13T01:07:31.371Z,70.45
2019-03-13T01:08:10.050Z,70.32
2019-03-13T01:08:47.690Z,70.14
2019-03-13T01:09:31.699Z,70.04
2019-03-13T01:10:11.269Z,69.93
2019-03-13T01:10:48.125Z,69.79
2019-03-13T01:11:27.204Z,69.55
2019-03-13T01:12:03.359Z,69.48
2019-03-13T01:12:39.790Z,69.31
2019-03-13T01:13:17.625Z,68.95
2019-03-13T01:13:54.113Z,68.57
2019-03-13T01:14:30.456Z,68.43
2019-03-13T01:15:08.775Z,68.38
2019-03-13T01:15:46.557Z,68.35
2019-03-13T01:16:25.272Z,68.24
2019-03-13T01:17:02.266Z,68.06
2019-03-13T01:17:40.274Z,67.84
2019-03-13T01:18:19.581Z,67.75
2019-03-13T01:19:18.014Z,67.57
2019-03-13T01:19:54.210Z,67.50
2019-03-13T01:20:30.563Z,67.40
2019-03-13T01:21:06.786Z,67.33
2019-03-13T01:21:43.360Z,67.12
2019-03-13T01:22:19.536Z,67.04
2019-03-13T01:22:57.467Z,67.07
2019-03-13T01:23:33.874Z,67.16
2019-03-13T01:24:12.438Z,67.25
2019-03-13T01:24:56.716Z,67.26
2019-03-13T01:25:33.026Z,67.26
2019-03-13T01:26:12.936Z,67.25
2019-03-13T01:26:58.018Z,67.16
2019-03-13T01:27:35.711Z,67.02
2019-03-13T01:28:11.953Z,67.02
2019-03-13T01:28:49.574Z,67.04
2019-03-13T01:29:26.061Z,67.08
2019-03-13T01:30:07.402Z,67.02
2019-03-13T01:31:10.063Z,66.81
2019-03-13T01:32:07.926Z,66.63
2019-03-13T01:33:09.753Z,66.41
2019-03-13T01:33:47.641Z,66.10
2019-03-13T01:34:52.913Z,65.50
2019-03-13T01:35:48.129Z,65.16
2019-03-13T01:36:25.936Z,64.62
2019-03-13T01:37:02.154Z,64.43
2019-03-13T01:37:41.800Z,64.23
2019-03-13T01:38:21.472Z,64.19
2019-03-13T01:38:57.610Z,64.05
2019-03-13T01:39:35.423Z,63.77
2019-03-13T01:40:14.934Z,63.58
2019-03-13T01:40:58.440Z,63.22
2019-03-13T01:41:39.094Z,62.87
2019-03-13T01:42:18.514Z,62.69
2019-03-13T01:42:54.913Z,62.41
2019-03-13T01:43:31.995Z,61.91
2019-03-13T01:44:11.577Z,61.80
2019-03-13T01:44:49.055Z,61.59
2019-03-13T01:45:26.322Z,61.27
2019-03-13T01:46:02.605Z,60.96
2019-03-13T01:46:41.979Z,60.55
2019-03-13T01:47:18.124Z,60.38
2019-03-13T01:47:54.291Z,60.22
2019-03-13T01:48:30.782Z,60.08
2019-03-13T01:49:06.947Z,59.87
2019-03-13T01:49:43.305Z,59.66
2019-03-13T01:50:25.518Z,59.46
2019-03-13T01:51:02.922Z,59.35
2019-03-13T01:51:39.086Z,59.35
2019-03-13T01:52:16.255Z,59.13
2019-03-13T01:52:55.215Z,58.94
2019-03-13T01:53:41.407Z,58.85
2019-03-13T01:54:17.614Z,58.88
2019-03-13T01:54:54.170Z,58.74
2019-03-13T01:55:30.337Z,58.66
2019-03-13T01:56:25.100Z,58.59
2019-03-13T01:57:01.257Z,58.58
2019-03-13T01:57:37.342Z,58.51
2019-03-13T01:58:33.231Z,58.46
2019-03-13T01:59:09.651Z,58.43
2019-03-13T01:59:47.074Z,58.63
2019-03-13T02:00:23.577Z,58.66
2019-03-13T02:01:06.001Z,58.54
2019-03-13T02:01:42.547Z,58.47
2019-03-13T02:02:18.996Z,58.33
2019-03-13T02:02:56.499Z,58.21
2019-03-13T02:03:34.031Z,58.15
2019-03-13T02:04:11.532Z,58.06
2019-03-13T02:04:50.170Z,58.04
2019-03-13T02:05:26.471Z,57.88
2019-03-13T02:06:05.052Z,57.98
2019-03-13T02:06:41.321Z,58.00
2019-03-13T02:07:18.657Z,58.21
2019-03-13T02:07:56.402Z,58.34
2019-03-13T02:08:33.846Z,58.60
2019-03-13T02:09:15.363Z,58.60
2019-03-13T02:09:54.761Z,58.65
2019-03-13T02:10:31.115Z,58.57
2019-03-13T02:11:08.484Z,58.55
2019-03-13T02:11:45.685Z,58.49
2019-03-13T02:12:22.131Z,58.62
2019-03-13T02:12:59.620Z,58.93
2019-03-13T02:13:36.867Z,58.93
2019-03-13T02:14:13.552Z,58.87
2019-03-13T02:14:51.193Z,58.82
2019-03-13T02:15:27.276Z,58.73
2019-03-13T02:16:06.686Z,58.50
2019-03-13T02:16:44.236Z,58.34
2019-03-13T02:17:21.462Z,58.24
2019-03-13T02:17:57.840Z,58.45
2019-03-13T02:18:35.696Z,58.54
2019-03-13T02:19:13.439Z,58.52
2019-03-13T02:19:54.008Z,58.54
2019-03-13T02:20:31.744Z,58.41
2019-03-13T02:21:14.906Z,58.46
2019-03-13T02:21:51.131Z,58.15
2019-03-13T02:22:30.395Z,58.14
2019-03-13T02:23:06.930Z,58.16
2019-03-13T02:23:47.443Z,58.13
2019-03-13T02:24:25.132Z,58.08
2019-03-13T02:25:03.387Z,58.06
2019-03-13T02:25:40.483Z,58.00
2019-03-13T02:26:17.130Z,57.87
2019-03-13T02:26:56.663Z,57.65
2019-03-13T02:27:43.704Z,57.50
2019-03-13T02:28:20.402Z,57.46
2019-03-13T02:28:58.136Z,57.34
2019-03-13T02:29:35.956Z,57.27
2019-03-13T02:30:16.775Z,57.08
2019-03-13T02:30:53.184Z,56.97
2019-03-13T02:31:29.489Z,56.65
2019-03-13T02:32:06.958Z,56.43
2019-03-13T02:32:43.044Z,56.17
2019-03-13T02:33:20.411Z,56.04
2019-03-13T02:34:00.312Z,55.88
2019-03-13T02:34:36.702Z,55.59
2019-03-13T02:35:37.754Z,55.60
2019-03-13T02:36:20.990Z,55.55
2019-03-13T02:37:00.881Z,55.50
2019-03-13T02:37:36.938Z,55.36
2019-03-13T02:38:13.612Z,55.46
2019-03-13T02:38:49.809Z,55.21
2019-03-13T02:39:29.211Z,55.08
2019-03-13T02:40:08.757Z,54.89
2019-03-13T02:40:58.013Z,54.70
2019-03-13T02:41:36.464Z,54.58
2019-03-13T02:42:12.650Z,54.60
2019-03-13T02:42:49.057Z,54.53
2019-03-13T02:43:25.277Z,54.40
2019-03-13T02:44:04.507Z,54.34
2019-03-13T02:44:45.083Z,54.47
2019-03-13T02:45:22.430Z,54.48
2019-03-13T02:46:13.899Z,54.32
2019-03-13T02:46:53.469Z,54.24
2019-03-13T02:47:29.724Z,54.06
2019-03-13T02:48:24.982Z,54.01
2019-03-13T02:49:25.014Z,53.95
2019-03-13T02:50:02.404Z,53.99
2019-03-13T02:50:38.555Z,54.05
2019-03-13T02:51:18.659Z,54.05
2019-03-13T02:51:54.882Z,53.95
2019-03-13T02:52:32.495Z,53.83
2019-03-13T02:53:10.469Z,53.71
2019-03-13T02:53:46.954Z,53.75
2019-03-13T02:54:23.706Z,53.51
2019-03-13T02:55:21.814Z,53.46
2019-03-13T02:56:16.425Z,53.37
2019-03-13T02:56:52.639Z,52.93
2019-03-13T02:57:36.127Z,52.99
2019-03-13T02:58:15.907Z,52.92
2019-03-13T02:58:57.190Z,52.95
2019-03-13T02:59:40.099Z,52.95
2019-03-13T03:00:17.524Z,52.98
2019-03-13T03:01:05.983Z,52.98
2019-03-13T03:02:07.031Z,53.07
2019-03-13T03:03:02.127Z,52.89
2019-03-13T03:03:43.855Z,53.18
2019-03-13T03:04:25.448Z,52.95
2019-03-13T03:05:05.545Z,52.87
2019-03-13T03:05:41.599Z,52.68
2019-03-13T03:06:19.376Z,52.62
2019-03-13T03:06:58.126Z,52.79
2019-03-13T03:07:38.232Z,53.23
2019-03-13T03:09:12.646Z,53.07
2019-03-13T03:09:50.413Z,53.07
2019-03-13T03:10:29.220Z,53.25
2019-03-13T03:11:05.429Z,53.28
2019-03-13T03:11:42.074Z,53.15
2019-03-13T03:12:18.271Z,53.03
2019-03-13T03:12:54.821Z,52.71
2019-03-13T03:13:32.444Z,52.62
2019-03-13T03:14:12.050Z,52.68
2019-03-13T03:15:04.140Z,52.91
2019-03-13T03:15:44.772Z,53.07
2019-03-13T03:16:22.652Z,53.33
2019-03-13T03:16:58.840Z,53.23
2019-03-13T03:17:39.363Z,53.07
2019-03-13T03:18:16.873Z,52.77
2019-03-13T03:18:53.187Z,52.80
2019-03-13T03:19:32.965Z,52.93
2019-03-13T03:20:15.377Z,52.93
2019-03-13T03:20:51.818Z,53.19
2019-03-13T03:21:27.993Z,53.26
2019-03-13T03:22:04.430Z,53.17
2019-03-13T03:22:40.847Z,53.05
2019-03-13T03:23:21.634Z,52.99
2019-03-13T03:23:57.887Z,52.81
2019-03-13T03:24:38.679Z,52.56
2019-03-13T03:25:15.850Z,52.32
2019-03-13T03:25:54.113Z,52.35
2019-03-13T03:26:32.950Z,52.41
2019-03-13T03:27:12.568Z,52.39
2019-03-13T03:27:49.826Z,52.01
2019-03-13T03:28:27.614Z,52.05
2019-03-13T03:29:06.468Z,51.91
2019-03-13T03:29:43.821Z,51.75
2019-03-13T03:30:22.958Z,50.97
2019-03-13T03:31:00.619Z,50.37
2019-03-13T03:31:47.399Z,50.39
2019-03-13T03:32:27.166Z,50.52
2019-03-13T03:33:05.898Z,50.57
2019-03-13T03:33:43.460Z,50.52
2019-03-13T03:34:19.791Z,50.26
2019-03-13T03:35:21.199Z,50.34
2019-03-13T03:35:58.748Z,50.41
2019-03-13T03:36:37.109Z,50.42
2019-03-13T03:37:13.738Z,50.70
2019-03-13T03:37:52.535Z,50.47
2019-03-13T03:38:29.411Z,50.51
2019-03-13T03:39:08.498Z,50.50
2019-03-13T03:39:47.838Z,50.14
2019-03-13T03:40:27.103Z,50.16
2019-03-13T03:41:08.526Z,49.48
2019-03-13T03:41:46.130Z,47.94
2019-03-13T03:42:27.435Z,48.06
2019-03-13T03:43:38.861Z,48.21
2019-03-13T03:44:20.798Z,48.21
2019-03-13T03:44:57.012Z,47.42
2019-03-13T03:45:40.898Z,47.64
2019-03-13T03:46:18.419Z,47.26
2019-03-13T03:46:57.445Z,47.26
2019-03-13T03:47:33.622Z,47.42
2019-03-13T03:48:09.872Z,47.98
2019-03-13T03:48:45.993Z,48.18
2019-03-13T03:49:24.665Z,47.94
2019-03-13T03:50:05.281Z,47.72
2019-03-13T03:50:41.483Z,47.51
2019-03-13T03:51:18.834Z,47.25
2019-03-13T03:51:54.965Z,46.68
2019-03-13T03:52:33.644Z,46.69
2019-03-13T03:53:15.415Z,46.75
2019-03-13T03:53:51.723Z,46.42
2019-03-13T03:54:28.152Z,45.61
2019-03-13T03:56:01.101Z,44.30
2019-03-13T03:56:37.554Z,44.17
2019-03-13T03:57:13.598Z,43.83
2019-03-13T03:57:52.596Z,44.33
2019-03-13T03:58:45.314Z,44.31
2019-03-13T03:59:42.258Z,43.98
2019-03-13T04:00:26.209Z,43.76
2019-03-13T04:01:17.137Z,44.22
2019-03-13T04:01:54.772Z,44.73
2019-03-13T04:02:31.259Z,45.39
2019-03-13T04:03:10.528Z,46.00
2019-03-13T04:03:46.714Z,46.09
2019-03-13T04:04:22.927Z,46.06
2019-03-13T04:04:59.192Z,46.03
2019-03-13T04:05:35.855Z,45.90
2019-03-13T04:06:18.047Z,46.04
2019-03-13T04:06:55.598Z,45.90
2019-03-13T04:07:31.917Z,45.71
2019-03-13T04:08:12.502Z,45.64
2019-03-13T04:08:58.162Z,45.66
2019-03-13T04:09:35.771Z,45.85
2019-03-13T04:10:12.077Z,46.08
2019-03-13T04:10:48.462Z,46.02
2019-03-13T04:11:28.381Z,45.59
2019-03-13T04:12:04.763Z,45.54
2019-03-13T04:12:41.284Z,45.01
2019-03-13T04:13:18.841Z,44.51
2019-03-13T04:13:55.184Z,44.35
2019-03-13T04:14:32.849Z,43.72
2019-03-13T04:15:13.236Z,43.69
2019-03-13T04:15:51.800Z,44.13
2019-03-13T04:16:36.741Z,44.61
2019-03-13T04:17:13.486Z,44.69
2019-03-13T04:17:50.902Z,44.70
2019-03-13T04:18:30.431Z,44.86
2019-03-13T04:19:22.389Z,45.10
2019-03-13T04:20:02.860Z,45.22
2019-03-13T04:20:45.250Z,45.49
2019-03-13T04:21:42.867Z,44.97
2019-03-13T04:22:20.332Z,44.61
2019-03-13T04:22:59.886Z,44.58
2019-03-13T04:23:37.569Z,44.87
2019-03-13T04:24:16.972Z,44.98
2019-03-13T04:25:08.135Z,45.05
2019-03-13T04:25:47.328Z,43.98
2019-03-13T04:26:26.167Z,44.49
2019-03-13T04:27:02.239Z,44.68
2019-03-13T04:27:42.421Z,45.11
2019-03-13T04:28:18.724Z,45.12
2019-03-13T04:28:56.482Z,44.54
2019-03-13T04:29:35.125Z,44.26
2019-03-13T04:30:11.735Z,44.08
2019-03-13T04:31:06.409Z,43.84
2019-03-13T04:31:48.002Z,43.98
2019-03-13T04:33:51.615Z,44.11
2019-03-13T04:34:33.561Z,44.07
2019-03-13T04:35:09.882Z,44.39
2019-03-13T04:35:46.394Z,43.74
2019-03-13T04:36:24.378Z,43.87
2019-03-13T04:37:01.029Z,44.33
2019-03-13T04:37:37.498Z,44.20
2019-03-13T04:38:16.132Z,44.04
2019-03-13T04:38:55.079Z,44.01
2019-03-13T04:39:32.530Z,44.05
2019-03-13T04:40:11.038Z,44.43
2019-03-13T04:40:51.853Z,44.56
2019-03-13T04:41:28.153Z,44.48
2019-03-13T04:42:09.754Z,44.04
2019-03-13T04:42:46.764Z,44.25
2019-03-13T04:43:26.810Z,44.62
2019-03-13T04:44:04.282Z,44.78
2019-03-13T04:44:43.336Z,44.53
2019-03-13T04:45:21.108Z,44.36
2019-03-13T04:45:57.300Z,44.37
2019-03-13T04:46:33.751Z,44.06
2019-03-13T04:47:29.885Z,44.19
2019-03-13T04:48:07.471Z,43.82
2019-03-13T04:48:43.813Z,43.90
2019-03-13T04:49:20.098Z,43.95
2019-03-13T04:49:59.683Z,43.66
2019-03-13T04:50:39.389Z,43.27
2019-03-13T04:51:21.171Z,43.48
2019-03-13T04:51:59.282Z,43.86
2019-03-13T04:52:40.876Z,44.03
2019-03-13T04:53:18.654Z,43.96
2019-03-13T04:54:32.040Z,44.26
2019-03-13T04:55:26.991Z,44.20
2019-03-13T04:56:07.430Z,44.43
2019-03-13T04:56:46.411Z,43.97
2019-03-13T04:57:34.579Z,43.93
2019-03-13T04:58:12.037Z,44.02
2019-03-13T04:58:49.870Z,43.92
2019-03-13T04:59:26.262Z,43.77
2019-03-13T05:00:03.822Z,43.81
2019-03-13T05:01:21.379Z,43.94
2019-03-13T05:01:59.675Z,44.49
2019-03-13T05:02:40.322Z,44.22
2019-03-13T05:03:17.532Z,44.09
2019-03-13T05:03:55.078Z,44.05
2019-03-13T05:04:38.731Z,44.01
2019-03-13T05:06:09.864Z,43.48
2019-03-13T05:06:56.661Z,42.95
2019-03-13T05:07:33.442Z,43.42
2019-03-13T05:08:09.647Z,42.73
2019-03-13T05:09:15.323Z,43.07
2019-03-13T05:09:54.597Z,43.41
2019-03-13T05:10:34.152Z,43.23
2019-03-13T05:11:18.207Z,43.23
2019-03-13T05:11:59.780Z,43.05
2019-03-13T05:12:57.255Z,42.99
2019-03-13T05:13:36.657Z,43.29
2019-03-13T05:14:15.367Z,43.77
2019-03-13T05:14:55.094Z,43.99
2019-03-13T05:15:36.403Z,43.75
2019-03-13T05:16:13.750Z,44.06
2019-03-13T05:16:54.873Z,44.17
2019-03-13T05:17:31.509Z,44.44
2019-03-13T05:18:11.454Z,44.71
2019-03-13T05:18:50.518Z,45.26
2019-03-13T05:19:28.027Z,45.40
2019-03-13T05:20:23.135Z,45.68
2019-03-13T05:21:09.634Z,45.88
2019-03-13T05:21:50.385Z,45.98
2019-03-13T05:22:30.108Z,45.75
2019-03-13T05:23:12.927Z,46.04
2019-03-13T05:23:50.515Z,45.75
2019-03-13T05:24:30.347Z,45.43
2019-03-13T05:25:08.977Z,45.27
2019-03-13T05:25:45.055Z,45.20
2019-03-13T05:26:21.537Z,44.98
2019-03-13T05:27:07.109Z,45.04
2019-03-13T05:27:44.311Z,44.49
2019-03-13T05:28:22.594Z,44.73
2019-03-13T05:29:03.543Z,44.86
2019-03-13T05:29:40.912Z,44.97
2019-03-13T05:30:19.320Z,45.05
2019-03-13T05:30:56.975Z,45.11
2019-03-13T05:31:45.588Z,44.54
2019-03-13T05:32:31.367Z,44.15
2019-03-13T05:33:13.211Z,44.36
2019-03-13T05:33:50.844Z,44.62
2019-03-13T05:34:34.634Z,44.65
2019-03-13T05:35:10.802Z,44.73
2019-03-13T05:35:49.128Z,44.78
2019-03-13T05:36:27.039Z,44.76
2019-03-13T05:37:06.365Z,44.69
2019-03-13T05:37:43.743Z,44.88
2019-03-13T05:38:22.292Z,44.91
2019-03-13T05:39:11.446Z,44.31
2019-03-13T05:39:54.655Z,44.22
2019-03-13T05:40:35.375Z,44.43
2019-03-13T05:41:11.447Z,44.72
2019-03-13T05:41:52.829Z,44.59
2019-03-13T05:42:34.209Z,44.34
2019-03-13T05:43:13.354Z,44.38
2019-03-13T05:43:50.534Z,44.45
2019-03-13T05:44:26.679Z,44.46
2019-03-13T05:45:08.258Z,44.64
2019-03-13T05:45:43.628Z,44.85
2019-03-13T05:46:20.776Z,44.84
2019-03-13T05:46:59.674Z,44.97
2019-03-13T05:47:39.586Z,45.15
2019-03-13T05:48:26.114Z,45.21
2019-03-13T05:49:10.568Z,45.03
2019-03-13T05:49:52.739Z,45.18
2019-03-13T05:50:31.540Z,44.88
2019-03-13T05:51:12.489Z,44.72
2019-03-13T05:51:50.251Z,44.56
2019-03-13T05:52:27.906Z,44.81
2019-03-13T05:53:06.785Z,44.57
2019-03-13T05:53:44.936Z,44.84
2019-03-13T05:54:22.896Z,44.90
2019-03-13T05:54:59.519Z,45.21
2019-03-13T05:55:38.167Z,44.95
2019-03-13T05:56:17.044Z,44.86
2019-03-13T05:56:53.111Z,44.97
2019-03-13T05:57:36.600Z,44.98
2019-03-13T05:58:12.666Z,45.16
2019-03-13T05:58:53.756Z,44.61
2019-03-13T05:59:34.574Z,44.84
2019-03-13T06:00:12.837Z,45.01
2019-03-13T06:00:50.199Z,45.01
2019-03-13T06:01:37.034Z,45.00
2019-03-13T06:02:13.057Z,44.91
2019-03-13T06:03:29.736Z,44.76
2019-03-13T06:04:08.271Z,45.01
2019-03-13T06:04:45.408Z,44.99
2019-03-13T06:05:21.582Z,44.91
2019-03-13T06:06:17.463Z,44.72
2019-03-13T06:06:57.170Z,44.64
2019-03-13T06:07:35.335Z,44.44
2019-03-13T06:08:18.340Z,44.22
2019-03-13T06:08:53.683Z,43.71
2019-03-13T06:09:50.912Z,43.62
2019-03-13T06:10:37.029Z,44.06
2019-03-13T06:11:13.404Z,44.02
2019-03-13T06:11:52.129Z,43.98
2019-03-13T06:12:29.210Z,43.55
2019-03-13T06:13:08.116Z,42.87
2019-03-13T06:13:47.125Z,43.21
2019-03-13T06:14:24.781Z,43.58
2019-03-13T06:15:07.413Z,43.96
2019-03-13T06:15:45.827Z,44.06
2019-03-13T06:16:30.982Z,43.97
2019-03-13T06:17:07.147Z,44.32
2019-03-13T06:17:47.297Z,43.96
2019-03-13T06:18:46.850Z,44.17
2019-03-13T06:19:23.377Z,44.14
2019-03-13T06:19:59.538Z,43.99
2019-03-13T06:20:35.907Z,43.94
2019-03-13T06:21:16.799Z,44.33
2019-03-13T06:23:09.646Z,44.67
2019-03-13T06:23:48.107Z,44.65
2019-03-13T06:24:31.960Z,44.73
2019-03-13T06:25:26.535Z,45.12
2019-03-13T06:26:03.576Z,45.17
2019-03-13T06:27:04.669Z,45.05
2019-03-13T06:28:08.608Z,45.09
2019-03-13T06:29:02.341Z,45.23
2019-03-13T06:29:55.265Z,44.97
2019-03-13T06:30:53.573Z,44.86
2019-03-13T06:31:29.900Z,44.59
2019-03-13T06:32:09.405Z,44.86
2019-03-13T06:32:45.722Z,45.09
2019-03-13T06:33:29.602Z,45.18
2019-03-13T06:34:11.365Z,45.01
2019-03-13T06:34:47.888Z,44.53
2019-03-13T06:35:33.970Z,44.54
2019-03-13T06:36:59.850Z,44.61
2019-03-13T06:37:52.795Z,44.59
2019-03-13T06:38:29.178Z,44.32
2019-03-13T06:39:39.494Z,44.60
2019-03-13T06:40:30.006Z,44.93
2019-03-13T06:41:07.133Z,45.09
2019-03-13T06:41:54.274Z,44.92
2019-03-13T06:42:49.688Z,44.88
2019-03-13T06:43:58.254Z,44.83
2019-03-13T06:44:47.209Z,44.75
2019-03-13T06:45:29.773Z,44.49
2019-03-13T06:46:06.600Z,44.70
2019-03-13T06:47:16.234Z,44.64
2019-03-13T06:47:55.699Z,44.16
2019-03-13T06:48:33.149Z,44.11
2019-03-13T06:49:18.971Z,44.17
2019-03-13T06:50:03.801Z,44.22
2019-03-13T06:51:09.516Z,43.75
2019-03-13T06:51:53.046Z,43.72
2019-03-13T06:52:33.676Z,43.27
2019-03-13T06:53:22.303Z,43.50
2019-03-13T06:54:01.873Z,43.89
2019-03-13T06:54:38.155Z,43.75
2019-03-13T06:55:15.862Z,43.77
2019-03-13T06:55:53.201Z,44.02
2019-03-13T06:56:29.257Z,43.46
2019-03-13T06:57:08.310Z,43.31
2019-03-13T06:58:09.638Z,43.04
2019-03-13T06:59:31.205Z,42.91
2019-03-13T07:00:34.877Z,43.17
2019-03-13T07:01:31.255Z,43.17
2019-03-13T07:02:37.882Z,42.79
2019-03-13T07:03:37.445Z,42.92
2019-03-13T07:04:44.331Z,42.88
2019-03-13T07:05:31.468Z,42.73
2019-03-13T07:06:19.079Z,43.15
2019-03-13T07:07:34.861Z,43.44
2019-03-13T07:08:39.646Z,43.60
2019-03-13T07:11:13.401Z,44.03
2019-03-13T07:12:12.058Z,43.66
2019-03-13T07:13:06.835Z,43.52
2019-03-13T07:14:19.000Z,42.97
2019-03-13T07:15:17.820Z,43.05
2019-03-13T07:16:12.249Z,43.82
2019-03-13T07:17:12.659Z,43.67
2019-03-13T07:19:03.515Z,43.43
2019-03-13T07:19:51.959Z,43.80
2019-03-13T07:21:07.723Z,43.30
2019-03-13T07:22:21.699Z,42.99
2019-03-13T07:23:42.254Z,42.79
2019-03-13T07:24:41.059Z,43.04
2019-03-13T07:25:34.619Z,42.82
2019-03-13T07:30:49.626Z,41.59
2019-03-13T07:33:29.946Z,40.39
2019-03-13T07:35:57.438Z,40.19
2019-03-13T07:37:18.297Z,40.11
2019-03-13T07:39:55.269Z,39.60
2019-03-13T07:41:19.860Z,39.83
2019-03-13T07:42:24.066Z,39.68
2019-03-13T07:44:58.898Z,39.24
2019-03-13T07:45:50.433Z,39.55
2019-03-13T07:46:45.221Z,39.60
2019-03-13T07:49:49.508Z,40.03
2019-03-13T07:50:48.613Z,40.07
2019-03-13T07:52:16.333Z,40.22
2019-03-13T07:53:43.595Z,40.16
2019-03-13T07:54:46.905Z,39.83
2019-03-13T07:55:41.039Z,39.75
2019-03-13T07:58:21.246Z,39.36
2019-03-13T07:59:23.048Z,39.22
2019-03-13T08:00:31.970Z,39.43
2019-03-13T08:01:34.211Z,39.85
2019-03-13T08:02:37.261Z,40.29
2019-03-13T08:04:53.139Z,39.78
2019-03-13T08:05:47.980Z,40.02
2019-03-13T08:08:02.492Z,40.49
2019-03-13T08:08:56.856Z,40.66
2019-03-13T08:10:09.433Z,40.99
2019-03-13T08:13:04.877Z,41.28
2019-03-13T08:14:17.451Z,41.37
2019-03-13T08:15:42.770Z,41.21
2019-03-13T08:16:37.114Z,41.65
2019-03-13T08:17:34.063Z,41.41
2019-03-13T08:18:41.312Z,40.84
2019-03-13T08:19:52.226Z,40.70
2019-03-13T08:22:03.486Z,40.62
2019-03-13T08:23:10.896Z,40.97
2019-03-13T08:24:42.167Z,40.82
2019-03-13T08:25:43.385Z,40.81
2019-03-13T08:27:26.385Z,40.71
2019-03-13T08:28:39.432Z,41.05
2019-03-13T08:29:43.795Z,41.31
2019-03-13T08:30:58.856Z,41.14
2019-03-13T08:32:14.453Z,41.44
2019-03-13T08:33:03.732Z,41.73
2019-03-13T08:34:17.216Z,41.90
2019-03-13T08:35:20.790Z,41.94
2019-03-13T08:37:38.037Z,42.58
2019-03-13T08:38:48.305Z,42.51
2019-03-13T08:39:55.369Z,42.32
2019-03-13T08:41:13.946Z,42.40
2019-03-13T08:42:17.649Z,42.93
2019-03-13T08:44:49.983Z,42.53
2019-03-13T08:45:53.285Z,42.45
2019-03-13T08:46:42.592Z,43.01
2019-03-13T08:47:53.463Z,43.15
2019-03-13T08:48:50.234Z,42.67
2019-03-13T08:49:43.706Z,42.92
2019-03-13T08:50:53.464Z,42.90
2019-03-13T08:52:02.431Z,42.98
2019-03-13T08:52:57.139Z,43.05
2019-03-13T08:54:19.458Z,42.50
2019-03-13T08:55:18.610Z,42.45
2019-03-13T08:56:52.912Z,42.13
2019-03-13T08:57:48.278Z,42.39
2019-03-13T08:58:49.924Z,42.61
2019-03-13T08:59:36.796Z,42.98
2019-03-13T09:00:37.773Z,43.01
2019-03-13T09:01:53.711Z,42.85
2019-03-13T09:02:53.362Z,42.67
2019-03-13T09:03:56.456Z,42.68
2019-03-13T09:04:52.190Z,42.61
2019-03-13T09:05:57.633Z,42.60
2019-03-13T09:07:21.709Z,42.67
2019-03-13T09:08:51.917Z,42.89
2019-03-13T09:09:44.861Z,42.82
2019-03-13T09:10:48.156Z,42.81
2019-03-13T09:11:57.609Z,43.03
2019-03-13T09:13:10.159Z,43.08
2019-03-13T09:13:59.896Z,43.41
2019-03-13T09:15:20.110Z,43.51
2019-03-13T09:16:21.467Z,43.57
2019-03-13T09:17:24.093Z,43.83
2019-03-13T09:18:25.214Z,43.87
2019-03-13T09:19:23.018Z,43.82
2019-03-13T09:20:16.202Z,43.97
2019-03-13T09:21:41.724Z,43.98
2019-03-13T09:24:15.540Z,44.18
2019-03-13T09:26:37.407Z,44.61
2019-03-13T09:30:31.369Z,44.65
2019-03-13T09:31:30.739Z,44.69
2019-03-13T09:32:45.100Z,44.82
2019-03-13T09:33:53.432Z,45.25
2019-03-13T09:34:55.772Z,45.32
2019-03-13T09:35:52.530Z,44.92
2019-03-13T09:36:53.347Z,45.02
2019-03-13T09:38:08.478Z,45.26
2019-03-13T09:38:56.831Z,45.32
2019-03-13T09:39:48.717Z,44.95
2019-03-13T09:41:08.735Z,45.37
2019-03-13T09:42:16.142Z,45.05
2019-03-13T09:43:34.698Z,45.22
2019-03-13T09:44:48.532Z,45.54
2019-03-13T09:45:35.199Z,45.84
2019-03-13T09:46:40.354Z,45.51
2019-03-13T09:47:44.256Z,45.35
2019-03-13T09:50:18.597Z,45.61
2019-03-13T09:51:28.756Z,45.83
2019-03-13T09:52:30.966Z,45.88
2019-03-13T09:53:37.617Z,46.15
2019-03-13T09:54:44.157Z,46.11
2019-03-13T09:56:02.091Z,46.09
2019-03-13T09:57:12.647Z,46.29
2019-03-13T09:58:25.294Z,45.51
2019-03-13T09:59:18.757Z,45.69
2019-03-13T10:00:27.925Z,45.71
2019-03-13T10:01:35.196Z,45.18
2019-03-13T10:02:32.149Z,45.27
2019-03-13T10:03:26.977Z,45.33
2019-03-13T10:04:21.629Z,45.38
2019-03-13T10:05:11.367Z,45.20
2019-03-13T10:06:07.160Z,45.38
2019-03-13T10:07:22.220Z,45.52
2019-03-13T10:08:47.748Z,45.35
2019-03-13T10:09:52.237Z,45.32
2019-03-13T10:10:41.335Z,45.19
2019-03-13T10:11:51.378Z,44.23
2019-03-13T10:12:36.908Z,43.60
2019-03-13T10:13:32.530Z,44.08
2019-03-13T10:14:31.798Z,44.69
2019-03-13T10:17:09.453Z,44.77
2019-03-13T10:18:13.631Z,45.00
2019-03-13T10:19:53.162Z,45.11
2019-03-13T10:20:53.385Z,44.99
2019-03-13T10:21:52.516Z,44.85
2019-03-13T10:22:52.757Z,45.03
2019-03-13T10:23:39.050Z,45.45
2019-03-13T10:24:40.001Z,45.60
2019-03-13T10:25:31.438Z,45.73
2019-03-13T10:26:47.209Z,46.11
2019-03-13T10:27:48.813Z,46.21
2019-03-13T10:28:34.643Z,46.49
2019-03-13T10:29:36.211Z,46.84
2019-03-13T10:30:44.526Z,47.55
2019-03-13T10:31:51.275Z,47.39
2019-03-13T10:32:37.102Z,47.35
2019-03-13T10:33:18.963Z,47.40
2019-03-13T10:34:14.469Z,47.47
2019-03-13T10:34:59.797Z,47.52
2019-03-13T10:35:57.659Z,47.71
2019-03-13T10:36:55.530Z,47.81
2019-03-13T10:37:50.357Z,47.99
2019-03-13T10:38:57.121Z,47.94
2019-03-13T10:40:00.679Z,47.87